Time;durP1;ratioP1;P1;durP2;ratioP2;P2;SDS_P1;SDS_P2;PMS_P1;PMS_P2;Temp;Humidity;BMP_temperature;BMP_pressure;BME280_temperature;BME280_humidity;BME280_pressure;Samples;Min_cycle;Max_cycle;Signal;HPM_P1;HPM_P2
2023/05/08 00:01:49;;;;;;;;;;;18.50;64.10;;;;;;5052251;28;841;-68
2023/05/08 00:04:14;;;;;;;;;;;18.50;64.10;;;;;;5051687;28;1263;-68
2023/05/08 00:06:40;;;;;;;;;;;18.50;64.20;;;;;;5052236;28;882;-68
2023/05/08 00:09:05;;;;;;;;;;;18.50;64.20;;;;;;5051998;28;978;-68
2023/05/08 00:11:31;;;;;;;;;;;18.50;64.20;;;;;;5052083;28;1910;-67
2023/05/08 00:13:56;;;;;;;;;;;18.50;64.20;;;;;;5051658;28;931;-68
2023/05/08 00:16:22;;;;;;;;;;;18.50;64.30;;;;;;5052245;28;1270;-68
2023/05/08 00:18:47;;;;;;;;;;;18.50;64.30;;;;;;5050471;28;868;-68
2023/05/08 00:21:13;;;;;;;;;;;18.50;64.30;;;;;;5051191;28;879;-68
2023/05/08 00:23:38;;;;;;;;;;;18.50;64.30;;;;;;5051429;28;997;-67
2023/05/08 00:26:04;;;;;;;;;;;18.50;65.10;;;;;;5051749;28;1283;-68
2023/05/08 00:28:29;;;;;;;;;;;18.50;64.30;;;;;;5051686;28;988;-68
2023/05/08 00:30:55;;;;;;;;;;;18.50;64.30;;;;;;5051282;28;1957;-68
2023/05/08 00:33:20;;;;;;;;;;;18.50;64.40;;;;;;5050072;28;1487;-67
2023/05/08 00:35:46;;;;;;;;;;;18.50;64.40;;;;;;5052250;28;1539;-68
2023/05/08 00:38:11;;;;;;;;;;;18.50;64.40;;;;;;5052577;28;1278;-68
2023/05/08 00:40:37;;;;;;;;;;;18.50;64.40;;;;;;5051534;28;808;-67
2023/05/08 00:43:02;;;;;;;;;;;18.50;64.40;;;;;;5045762;28;1147;-68
2023/05/08 00:45:35;;;;;;;;;;;18.50;64.40;;;;;;5051206;28;1269;-68
2023/05/08 00:48:01;;;;;;;;;;;18.50;64.50;;;;;;5031964;28;868;-68
2023/05/08 00:50:27;;;;;;;;;;;18.50;64.50;;;;;;5051415;28;1615;-68
2023/05/08 00:52:52;;;;;;;;;;;18.50;64.50;;;;;;5049652;28;2006;-68
2023/05/08 00:55:18;;;;;;;;;;;18.50;64.50;;;;;;5050906;28;1366;-68
2023/05/08 00:57:43;;;;;;;;;;;18.50;64.50;;;;;;5050737;28;914;-68
2023/05/08 01:00:09;;;;;;;;;;;18.50;64.50;;;;;;5082884;28;1369;-68
2023/05/08 01:02:34;;;;;;;;;;;18.50;64.50;;;;;;5051282;28;820;-68
2023/05/08 01:05:00;;;;;;;;;;;18.50;64.60;;;;;;5082845;28;1377;-68
2023/05/08 01:07:26;;;;;;;;;;;18.50;64.60;;;;;;5049631;28;835;-68
2023/05/08 01:09:51;;;;;;;;;;;18.50;64.60;;;;;;5083076;28;872;-68
2023/05/08 01:12:20;;;;;;;;;;;18.50;64.60;;;;;;5050930;28;1906;-68
2023/05/08 01:14:58;;;;;;;;;;;18.50;64.60;;;;;;5050291;28;1374;-68
2023/05/08 01:17:23;;;;;;;;;;;18.50;64.70;;;;;;5050811;28;1050;-68
2023/05/08 01:20:08;;;;;;;;;;;18.50;64.70;;;;;;5050540;28;823;-68
2023/05/08 01:22:48;;;;;;;;;;;18.50;64.70;;;;;;5050260;28;1411;-68
2023/05/08 01:25:23;;;;;;;;;;;18.50;64.70;;;;;;5050482;28;1338;-68
2023/05/08 01:27:55;;;;;;;;;;;18.40;64.70;;;;;;5049282;28;1314;-67
2023/05/08 01:30:36;;;;;;;;;;;18.40;64.70;;;;;;5082648;28;883;-68
2023/05/08 01:33:06;;;;;;;;;;;18.50;64.80;;;;;;5050018;28;1890;-68
2023/05/08 01:35:33;;;;;;;;;;;18.40;64.70;;;;;;5083622;28;1552;-67
2023/05/08 01:38:11;;;;;;;;;;;18.40;64.70;;;;;;5047645;28;1028;-67
2023/05/08 01:40:42;;;;;;;;;;;18.40;64.70;;;;;;5050373;28;864;-67
2023/05/08 01:43:23;;;;;;;;;;;18.40;64.80;;;;;;5050185;28;915;-68
2023/05/08 01:45:49;;;;;;;;;;;18.40;64.80;;;;;;5050137;28;1334;-67
2023/05/08 01:48:34;;;;;;;;;;;18.40;64.80;;;;;;5049102;28;852;-67
2023/05/08 01:51:11;;;;;;;;;;;18.40;64.80;;;;;;5048962;28;1878;-68
2023/05/08 01:53:38;;;;;;;;;;;18.40;64.80;;;;;;5048760;28;890;-68
2023/05/08 01:56:11;;;;;;;;;;;18.50;64.90;;;;;;5082329;28;1244;-68
2023/05/08 01:58:37;;;;;;;;;;;18.40;64.90;;;;;;5082012;28;910;-68
2023/05/08 02:01:02;;;;;;;;;;;18.40;64.80;;;;;;5049011;28;851;-68
2023/05/08 02:03:29;;;;;;;;;;;18.40;64.80;;;;;;5049767;28;1088;-68
2023/05/08 02:05:54;;;;;;;;;;;18.50;64.90;;;;;;5082066;28;1398;-68
2023/05/08 02:08:20;;;;;;;;;;;18.40;64.90;;;;;;5082509;28;828;-68
2023/05/08 02:10:46;;;;;;;;;;;18.40;64.90;;;;;;5082249;28;1967;-68
2023/05/08 02:13:11;;;;;;;;;;;18.50;65.00;;;;;;5048598;28;867;-68
2023/05/08 02:15:37;;;;;;;;;;;18.40;64.90;;;;;;5032302;28;2246;-68
2023/05/08 02:18:03;;;;;;;;;;;18.40;64.90;;;;;;5082398;28;906;-68
2023/05/08 02:20:29;;;;;;;;;;;18.40;64.90;;;;;;5065425;28;1246;-68
2023/05/08 02:22:54;;;;;;;;;;;18.40;65.00;;;;;;5049180;28;963;-68
2023/05/08 02:25:20;;;;;;;;;;;18.40;65.00;;;;;;5049130;28;1271;-68
2023/05/08 02:27:46;;;;;;;;;;;18.40;65.00;;;;;;5050144;28;1026;-68
2023/05/08 02:30:12;;;;;;;;;;;18.40;65.00;;;;;;5081474;28;823;-68
2023/05/08 02:32:37;;;;;;;;;;;18.40;65.00;;;;;;5048603;28;1929;-68
2023/05/08 02:35:03;;;;;;;;;;;18.40;65.00;;;;;;5081796;28;1546;-67
2023/05/08 02:37:28;;;;;;;;;;;18.40;65.00;;;;;;5032137;28;1162;-68
2023/05/08 02:39:53;;;;;;;;;;;18.40;65.10;;;;;;5049836;28;846;-67
2023/05/08 02:42:19;;;;;;;;;;;18.40;65.00;;;;;;5048651;28;880;-68
2023/05/08 02:44:44;;;;;;;;;;;18.40;65.10;;;;;;5051596;28;1339;-68
2023/05/08 02:47:30;;;;;;;;;;;18.40;65.10;;;;;;5052340;28;951;-68
2023/05/08 02:49:59;;;;;;;;;;;18.40;65.10;;;;;;5042918;28;1265;-68
2023/05/08 02:52:28;;;;;;;;;;;18.40;65.10;;;;;;5051828;28;1909;-68
2023/05/08 02:55:02;;;;;;;;;;;18.40;65.10;;;;;;5052840;28;1805;-68
2023/05/08 02:57:28;;;;;;;;;;;18.40;65.10;;;;;;5085830;28;933;-68
2023/05/08 03:00:01;;;;;;;;;;;18.40;65.10;;;;;;5053799;28;772;-68
2023/05/08 03:02:40;;;;;;;;;;;18.40;65.20;;;;;;5035765;28;1166;-67
2023/05/08 03:05:07;;;;;;;;;;;18.40;65.10;;;;;;5068200;28;1295;-68
2023/05/08 03:07:32;;;;;;;;;;;18.40;65.20;;;;;;5053095;28;946;-68
2023/05/08 03:10:00;;;;;;;;;;;18.40;65.20;;;;;;5085828;28;891;-68
2023/05/08 03:12:26;;;;;;;;;;;18.40;65.20;;;;;;5053127;28;1898;-68
2023/05/08 03:14:56;;;;;;;;;;;18.40;65.20;;;;;;5051677;28;1254;-68
2023/05/08 03:17:21;;;;;;;;;;;18.40;65.20;;;;;;5052834;28;827;-68
2023/05/08 03:19:48;;;;;;;;;;;18.40;65.20;;;;;;5084873;28;868;-68
2023/05/08 03:22:14;;;;;;;;;;;18.40;65.20;;;;;;5085398;28;885;-68
2023/05/08 03:24:40;;;;;;;;;;;18.40;65.20;;;;;;5052677;28;1350;-68
2023/05/08 03:27:05;;;;;;;;;;;18.40;65.30;;;;;;5048469;28;958;-68
2023/05/08 03:29:30;;;;;;;;;;;18.40;65.30;;;;;;5051520;28;1505;-68
2023/05/08 03:31:56;;;;;;;;;;;18.40;65.30;;;;;;5084866;28;1955;-68
2023/05/08 03:34:22;;;;;;;;;;;18.40;65.30;;;;;;5052793;28;1473;-68
2023/05/08 03:36:47;;;;;;;;;;;18.30;65.20;;;;;;5052590;28;836;-68
2023/05/08 03:39:13;;;;;;;;;;;18.40;65.30;;;;;;5052531;28;1254;-68
2023/05/08 03:41:38;;;;;;;;;;;18.40;65.30;;;;;;5085026;28;870;-68
2023/05/08 03:44:04;;;;;;;;;;;18.40;65.30;;;;;;5084689;28;1633;-68
2023/05/08 03:46:30;;;;;;;;;;;18.40;65.30;;;;;;5084716;28;1412;-68
2023/05/08 03:48:55;;;;;;;;;;;18.30;65.30;;;;;;5051207;28;1049;-68
2023/05/08 03:51:21;;;;;;;;;;;18.30;65.30;;;;;;5084589;28;1898;-67
2023/05/08 03:53:46;;;;;;;;;;;18.40;65.40;;;;;;5034157;28;1375;-67
2023/05/08 03:56:12;;;;;;;;;;;18.30;65.30;;;;;;5052013;28;1321;-68
2023/05/08 03:58:43;;;;;;;;;;;18.30;65.30;;;;;;5052020;28;847;-67
2023/05/08 04:01:21;;;;;;;;;;;18.30;65.30;;;;;;5083516;28;835;-67
2023/05/08 04:04:00;;;;;;;;;;;18.30;65.30;;;;;;5051345;28;915;-68
2023/05/08 04:06:30;;;;;;;;;;;18.30;65.30;;;;;;5083540;28;1430;-68
2023/05/08 04:09:16;;;;;;;;;;;18.30;65.30;;;;;;5046475;28;879;-68
2023/05/08 04:11:58;;;;;;;;;;;18.40;65.30;;;;;;5051769;28;1983;-68
2023/05/08 04:14:25;;;;;;;;;;;18.40;65.30;;;;;;5084097;28;1344;-68
2023/05/08 04:16:51;;;;;;;;;;;18.40;65.20;;;;;;5053176;28;919;-69
2023/05/08 04:19:23;;;;;;;;;;;18.40;65.10;;;;;;5052183;28;836;-68
2023/05/08 04:21:49;;;;;;;;;;;18.40;65.00;;;;;;5050544;28;862;-68
2023/05/08 04:24:15;;;;;;;;;;;18.50;64.90;;;;;;5050870;28;1809;-68
2023/05/08 04:26:40;;;;;;;;;;;18.50;64.80;;;;;;5083811;28;827;-68
2023/05/08 04:29:06;;;;;;;;;;;18.60;64.70;;;;;;5083911;28;832;-67
2023/05/08 04:31:31;;;;;;;;;;;18.60;64.60;;;;;;5050363;28;1947;-68
2023/05/08 04:33:57;;;;;;;;;;;18.60;64.40;;;;;;5083503;28;1427;-68
2023/05/08 04:36:22;;;;;;;;;;;18.60;64.30;;;;;;5051602;28;1263;-68
2023/05/08 04:38:48;;;;;;;;;;;18.60;64.20;;;;;;5050151;28;1290;-68
2023/05/08 04:41:14;;;;;;;;;;;18.70;64.20;;;;;;5051559;28;871;-68
2023/05/08 04:43:40;;;;;;;;;;;18.80;64.10;;;;;;5051157;28;887;-68
2023/05/08 04:46:05;;;;;;;;;;;18.90;64.00;;;;;;5050059;28;1352;-68
2023/05/08 04:48:32;;;;;;;;;;;19.00;63.90;;;;;;5051297;28;951;-68
2023/05/08 04:50:58;;;;;;;;;;;19.10;63.70;;;;;;5051038;28;1926;-68
2023/05/08 04:53:23;;;;;;;;;;;19.20;63.40;;;;;;5049961;28;1147;-68
2023/05/08 04:55:49;;;;;;;;;;;19.40;63.10;;;;;;5051098;28;1264;-68
2023/05/08 04:58:14;;;;;;;;;;;19.50;62.80;;;;;;5051117;28;895;-68
2023/05/08 05:00:40;;;;;;;;;;;19.60;62.40;;;;;;5049944;28;910;-68
2023/05/08 05:03:05;;;;;;;;;;;19.70;62.10;;;;;;5051078;28;894;-68
2023/05/08 05:05:30;;;;;;;;;;;19.80;61.80;;;;;;5050208;28;1239;-68
2023/05/08 05:07:56;;;;;;;;;;;19.90;61.50;;;;;;5050306;28;903;-68
2023/05/08 05:10:21;;;;;;;;;;;20.00;61.20;;;;;;5050977;28;1042;-68
2023/05/08 05:12:47;;;;;;;;;;;20.10;60.90;;;;;;5050883;28;1972;-68
2023/05/08 05:15:12;;;;;;;;;;;20.20;60.70;;;;;;5050337;28;1336;-68
2023/05/08 05:17:38;;;;;;;;;;;20.20;60.40;;;;;;5051326;28;924;-67
2023/05/08 05:20:04;;;;;;;;;;;20.30;60.20;;;;;;5052141;28;868;-68
2023/05/08 05:22:31;;;;;;;;;;;20.40;60.00;;;;;;5049449;28;878;-68
2023/05/08 05:24:57;;;;;;;;;;;20.50;59.90;;;;;;5082648;28;1364;-68
2023/05/08 05:27:23;;;;;;;;;;;20.50;59.70;;;;;;5050658;28;930;-67
2023/05/08 05:29:48;;;;;;;;;;;20.60;59.70;;;;;;5050380;28;916;-68
2023/05/08 05:32:14;;;;;;;;;;;20.60;59.50;;;;;;5050302;28;1902;-67
2023/05/08 05:34:40;;;;;;;;;;;20.60;59.40;;;;;;5051057;28;1439;-67
2023/05/08 05:37:06;;;;;;;;;;;20.70;59.40;;;;;;5082650;28;894;-67
2023/05/08 05:39:31;;;;;;;;;;;20.70;59.30;;;;;;5048917;28;892;-68
2023/05/08 05:41:57;;;;;;;;;;;20.70;59.20;;;;;;5044485;28;1041;-68
2023/05/08 05:44:22;;;;;;;;;;;20.70;59.20;;;;;;5049869;28;1298;-68
2023/05/08 05:46:47;;;;;;;;;;;20.80;59.20;;;;;;5076265;28;1808;-70
2023/05/08 05:49:13;;;;;;;;;;;20.80;59.10;;;;;;5049818;28;1424;-68
2023/05/08 05:51:38;;;;;;;;;;;20.80;59.10;;;;;;5049691;28;1902;-69
2023/05/08 05:54:04;;;;;;;;;;;20.80;59.00;;;;;;5049948;28;883;-69
2023/05/08 05:56:29;;;;;;;;;;;20.80;59.00;;;;;;5049843;28;1304;-69
2023/05/08 05:58:55;;;;;;;;;;;20.80;58.90;;;;;;5048936;28;842;-69
2023/05/08 06:01:23;;;;;;;;;;;20.90;59.00;;;;;;5050454;28;879;-70
2023/05/08 06:03:48;;;;;;;;;;;20.90;59.00;;;;;;5049667;28;803;-69
2023/05/08 06:06:14;;;;;;;;;;;20.90;58.90;;;;;;5051101;28;1358;-69
2023/05/08 06:08:39;;;;;;;;;;;20.90;58.90;;;;;;5051114;28;875;-68
2023/05/08 06:11:05;;;;;;;;;;;20.90;59.00;;;;;;5050144;28;1968;-69
2023/05/08 06:13:30;;;;;;;;;;;20.90;59.00;;;;;;5049711;28;827;-70
2023/05/08 06:15:56;;;;;;;;;;;20.90;59.00;;;;;;5049634;28;1303;-67
2023/05/08 06:18:22;;;;;;;;;;;20.90;59.00;;;;;;5049654;28;832;-68
2023/05/08 06:20:47;;;;;;;;;;;20.90;59.10;;;;;;5047780;28;1889;-68
2023/05/08 06:23:13;;;;;;;;;;;20.80;59.10;;;;;;5054036;28;942;-68
2023/05/08 06:25:39;;;;;;;;;;;20.80;59.20;;;;;;5053719;28;1284;-68
2023/05/08 06:28:06;;;;;;;;;;;20.80;59.30;;;;;;5069539;28;831;-68
2023/05/08 06:30:32;;;;;;;;;;;20.80;59.30;;;;;;5053802;28;867;-68
2023/05/08 06:32:58;;;;;;;;;;;20.80;59.40;;;;;;5052658;28;1902;-68
2023/05/08 06:35:23;;;;;;;;;;;20.80;59.50;;;;;;5053558;28;1358;-69
2023/05/08 06:37:49;;;;;;;;;;;20.80;59.60;;;;;;5053842;28;926;-67
2023/05/08 06:40:14;;;;;;;;;;;20.70;59.60;;;;;;5053438;28;980;-69
2023/05/08 06:42:40;;;;;;;;;;;20.70;59.70;;;;;;5053737;28;872;-69
2023/05/08 06:45:06;;;;;;;;;;;20.70;59.80;;;;;;5053208;28;1390;-69
2023/05/08 06:47:31;;;;;;;;;;;20.70;59.80;;;;;;5053126;28;1272;-69
2023/05/08 06:49:57;;;;;;;;;;;20.60;59.80;;;;;;5053499;28;880;-69
2023/05/08 06:52:24;;;;;;;;;;;20.60;59.90;;;;;;5053579;28;1981;-70
2023/05/08 06:54:50;;;;;;;;;;;20.60;59.90;;;;;;5053435;28;1358;-69
2023/05/08 06:57:15;;;;;;;;;;;20.60;60.00;;;;;;5052987;28;786;-69
2023/05/08 06:59:41;;;;;;;;;;;20.60;60.00;;;;;;5052886;28;860;-69
2023/05/08 07:02:08;;;;;;;;;;;20.60;60.10;;;;;;5053285;28;887;-69
2023/05/08 07:04:34;;;;;;;;;;;20.50;60.10;;;;;;5052252;28;1341;-69
2023/05/08 07:06:59;;;;;;;;;;;20.50;60.20;;;;;;5052811;28;1129;-69
2023/05/08 07:09:25;;;;;;;;;;;20.50;60.30;;;;;;5085250;28;1407;-69
2023/05/08 07:11:51;;;;;;;;;;;20.50;60.30;;;;;;5052985;28;1965;-69
2023/05/08 07:14:16;;;;;;;;;;;20.50;60.80;;;;;;5052617;28;1369;-68
2023/05/08 07:16:42;;;;;;;;;;;20.50;61.00;;;;;;5050626;28;1503;-69
2023/05/08 07:19:07;;;;;;;;;;;20.50;61.70;;;;;;5051940;28;1169;-68
2023/05/08 07:21:33;;;;;;;;;;;20.50;61.80;;;;;;5051624;28;1283;-68
2023/05/08 07:23:58;;;;;;;;;;;20.50;61.80;;;;;;5051519;28;1325;-69
2023/05/08 07:26:24;;;;;;;;;;;20.50;62.00;;;;;;5081764;28;1528;-69
2023/05/08 07:28:50;;;;;;;;;;;20.50;62.10;;;;;;5050507;28;1290;-69
2023/05/08 07:31:15;;;;;;;;;;;20.40;62.30;;;;;;5050972;28;1971;-69
2023/05/08 07:33:41;;;;;;;;;;;20.40;62.70;;;;;;5052519;28;1241;-68
2023/05/08 07:36:07;;;;;;;;;;;20.40;63.20;;;;;;5052458;28;1291;-69
2023/05/08 07:38:32;;;;;;;;;;;20.40;62.90;;;;;;5052319;28;1284;-69
2023/05/08 07:41:00;;;;;;;;;;;20.40;63.10;;;;;;5052106;28;848;-69
2023/05/08 07:43:25;;;;;;;;;;;20.40;63.30;;;;;;5052252;28;843;-69
2023/05/08 07:45:51;;;;;;;;;;;20.30;63.40;;;;;;5052526;28;1263;-69
2023/05/08 07:48:16;;;;;;;;;;;20.30;63.50;;;;;;5048323;28;1691;-69
2023/05/08 07:50:42;;;;;;;;;;;20.30;63.70;;;;;;5052360;28;2152;-68
2023/05/08 07:53:07;;;;;;;;;;;20.30;63.80;;;;;;5052084;28;1989;-69
2023/05/08 07:55:33;;;;;;;;;;;20.30;64.00;;;;;;5053105;28;1527;-69
2023/05/08 07:57:58;;;;;;;;;;;20.30;64.30;;;;;;5053299;28;1446;-69
2023/05/08 08:00:26;;;;;;;;;;;20.30;64.60;;;;;;5052178;28;847;-69
2023/05/08 08:02:51;;;;;;;;;;;20.20;64.60;;;;;;5052032;28;950;-69
2023/05/08 08:05:17;;;;;;;;;;;20.30;64.80;;;;;;5051632;28;1271;-69
2023/05/08 08:07:42;;;;;;;;;;;20.20;64.80;;;;;;5051909;28;895;-68
2023/05/08 08:10:08;;;;;;;;;;;20.20;64.90;;;;;;5052020;28;959;-68
2023/05/08 08:12:33;;;;;;;;;;;20.20;64.90;;;;;;5051963;28;1909;-69
2023/05/08 08:14:58;;;;;;;;;;;20.20;65.00;;;;;;5051648;28;1263;-68
2023/05/08 08:17:24;;;;;;;;;;;20.20;65.10;;;;;;5051904;28;907;-69
2023/05/08 08:19:49;;;;;;;;;;;20.20;65.20;;;;;;5045156;28;927;-69
2023/05/08 08:22:15;;;;;;;;;;;20.20;65.40;;;;;;5084240;28;867;-68
2023/05/08 08:24:40;;;;;;;;;;;20.10;65.40;;;;;;5051396;28;1257;-69
2023/05/08 08:27:07;;;;;;;;;;;20.10;65.60;;;;;;5051739;28;875;-69
2023/05/08 08:29:32;;;;;;;;;;;20.20;65.80;;;;;;5084028;28;922;-69
2023/05/08 08:31:59;;;;;;;;;;;20.20;65.80;;;;;;5050866;28;1965;-68
2023/05/08 08:34:24;;;;;;;;;;;20.20;65.80;;;;;;5049752;28;1451;-69
2023/05/08 08:36:50;;;;;;;;;;;20.10;65.90;;;;;;5051671;28;1025;-70
2023/05/08 08:39:15;;;;;;;;;;;20.10;65.80;;;;;;5051393;28;1347;-68
2023/05/08 08:41:41;;;;;;;;;;;20.10;65.90;;;;;;5050520;28;1707;-69
2023/05/08 08:44:06;;;;;;;;;;;20.10;65.80;;;;;;5051306;28;969;-69
2023/05/08 08:46:32;;;;;;;;;;;20.10;65.90;;;;;;5051537;28;1337;-69
2023/05/08 08:48:58;;;;;;;;;;;20.10;66.00;;;;;;5051355;28;875;-69
2023/05/08 08:51:23;;;;;;;;;;;20.10;66.10;;;;;;5083611;28;1906;-69
2023/05/08 08:53:49;;;;;;;;;;;20.10;66.00;;;;;;5050557;28;802;-69
2023/05/08 08:56:15;;;;;;;;;;;20.10;66.20;;;;;;5049733;28;1358;-69
2023/05/08 08:58:45;;;;;;;;;;;20.10;66.30;;;;;;5051031;28;1093;-69
2023/05/08 09:01:13;;;;;;;;;;;20.10;66.30;;;;;;5082245;28;852;-69
2023/05/08 09:03:39;;;;;;;;;;;20.00;66.20;;;;;;5049573;28;832;-69
2023/05/08 09:06:04;;;;;;;;;;;20.10;66.30;;;;;;5050943;28;1240;-69
2023/05/08 09:08:31;;;;;;;;;;;20.00;66.30;;;;;;5044543;28;1041;-69
2023/05/08 09:10:56;;;;;;;;;;;20.00;66.30;;;;;;5050861;28;930;-69
2023/05/08 09:13:22;;;;;;;;;;;20.00;66.40;;;;;;5047693;28;2161;-69
2023/05/08 09:15:49;;;;;;;;;;;20.00;66.30;;;;;;5049713;28;1814;-69
2023/05/08 09:18:15;;;;;;;;;;;20.00;66.50;;;;;;5050400;28;1360;-69
2023/05/08 09:20:40;;;;;;;;;;;20.00;66.40;;;;;;5050766;28;951;-69
2023/05/08 09:23:06;;;;;;;;;;;20.00;66.40;;;;;;5050007;28;2150;-69
2023/05/08 09:25:45;;;;;;;;;;;20.00;66.50;;;;;;5050378;28;1798;-69
2023/05/08 09:28:14;;;;;;;;;;;20.00;66.50;;;;;;5049545;28;891;-70
2023/05/08 09:30:47;;;;;;;;;;;20.00;66.40;;;;;;5045613;28;869;-70
2023/05/08 09:33:12;;;;;;;;;;;20.00;66.60;;;;;;5048129;28;1953;-70
2023/05/08 09:35:38;;;;;;;;;;;20.00;66.60;;;;;;5044132;28;2400;-69
2023/05/08 09:38:04;;;;;;;;;;;20.00;66.70;;;;;;5050347;28;1485;-70
2023/05/08 09:40:29;;;;;;;;;;;20.00;66.70;;;;;;5050592;28;1595;-70
2023/05/08 09:42:55;;;;;;;;;;;19.90;66.50;;;;;;5050571;28;805;-71
2023/05/08 09:45:30;;;;;;;;;;;20.00;66.90;;;;;;5050511;28;1268;-69
2023/05/08 09:47:55;;;;;;;;;;;19.90;67.10;;;;;;5050746;28;903;-70
2023/05/08 09:50:21;;;;;;;;;;;19.90;67.30;;;;;;5050305;28;867;-70
2023/05/08 09:52:47;;;;;;;;;;;19.90;67.60;;;;;;5049088;28;2100;-68
2023/05/08 09:55:13;;;;;;;;;;;19.90;67.80;;;;;;5049864;28;1382;-69
2023/05/08 09:57:39;;;;;;;;;;;19.90;68.00;;;;;;5045392;28;1361;-69
2023/05/08 10:00:09;;;;;;;;;;;19.90;68.20;;;;;;5050158;28;848;-70
2023/05/08 10:02:34;;;;;;;;;;;19.90;68.50;;;;;;5049699;28;856;-70
2023/05/08 10:05:00;;;;;;;;;;;19.90;68.60;;;;;;5049489;28;1336;-70
2023/05/08 10:07:29;;;;;;;;;;;19.90;69.00;;;;;;5049984;28;1214;-70
2023/05/08 10:10:02;;;;;;;;;;;19.90;69.20;;;;;;5048868;28;832;-69
2023/05/08 10:12:27;;;;;;;;;;;19.80;69.40;;;;;;5049853;28;1910;-69
2023/05/08 10:14:53;;;;;;;;;;;19.90;69.80;;;;;;5049742;28;1276;-70
2023/05/08 10:17:20;;;;;;;;;;;19.90;70.30;;;;;;5081988;28;888;-70
2023/05/08 10:19:46;;;;;;;;;;;19.90;70.30;;;;;;5082260;28;819;-70
2023/05/08 10:22:11;;;;;;;;;;;19.90;70.40;;;;;;5082356;28;882;-69
2023/05/08 10:24:37;;;;;;;;;;;19.90;70.50;;;;;;5043184;28;1253;-70
2023/05/08 10:27:11;;;;;;;;;;;19.90;70.50;;;;;;5082334;28;918;-69
2023/05/08 10:29:57;;;;;;;;;;;19.90;70.40;;;;;;5049605;28;822;-68
2023/05/08 10:32:22;;;;;;;;;;;19.80;70.50;;;;;;5049350;28;1894;-69
2023/05/08 10:34:51;;;;;;;;;;;19.80;70.40;;;;;;5049638;28;1369;-69
2023/05/08 10:37:17;;;;;;;;;;;19.90;70.20;;;;;;5043516;28;906;-68
2023/05/08 10:39:43;;;;;;;;;;;19.90;70.20;;;;;;5082027;28;1377;-69
2023/05/08 10:42:08;;;;;;;;;;;19.80;70.20;;;;;;5049935;28;891;-69
2023/05/08 10:44:34;;;;;;;;;;;19.90;70.20;;;;;;5081587;28;1365;-69
2023/05/08 10:47:11;;;;;;;;;;;19.90;70.30;;;;;;5049836;28;867;-69
2023/05/08 10:49:42;;;;;;;;;;;19.90;70.20;;;;;;5049220;28;1046;-68
2023/05/08 10:52:09;;;;;;;;;;;19.90;70.00;;;;;;5049642;28;1967;-69
2023/05/08 10:54:53;;;;;;;;;;;19.90;69.70;;;;;;5081503;28;1251;-68
2023/05/08 10:57:18;;;;;;;;;;;19.90;69.50;;;;;;5048846;28;930;-69
2023/05/08 10:59:47;;;;;;;;;;;19.90;69.30;;;;;;5049474;28;913;-69
2023/05/08 11:02:12;;;;;;;;;;;19.90;69.20;;;;;;5049706;28;805;-69
2023/05/08 11:04:38;;;;;;;;;;;19.90;69.20;;;;;;5047962;28;1260;-69
2023/05/08 11:07:04;;;;;;;;;;;19.90;69.20;;;;;;5053305;28;841;-69
2023/05/08 11:09:43;;;;;;;;;;;19.90;69.20;;;;;;5050806;28;1002;-69
2023/05/08 11:12:28;;;;;;;;;;;19.90;69.50;;;;;;5051326;28;1988;-69
2023/05/08 11:15:03;;;;;;;;;;;19.80;69.60;;;;;;5084928;28;1366;-69
2023/05/08 11:17:29;;;;;;;;;;;19.80;69.70;;;;;;5052800;28;907;-69
2023/05/08 11:19:56;;;;;;;;;;;19.80;69.80;;;;;;5052895;28;886;-69
2023/05/08 11:22:22;;;;;;;;;;;19.80;69.70;;;;;;5085137;28;843;-69
2023/05/08 11:24:49;;;;;;;;;;;19.80;69.70;;;;;;5052634;28;1339;-69
2023/05/08 11:27:14;;;;;;;;;;;19.80;69.90;;;;;;5051729;28;923;-69
2023/05/08 11:29:40;;;;;;;;;;;19.80;69.90;;;;;;5052930;28;875;-69
2023/05/08 11:32:05;;;;;;;;;;;19.80;70.00;;;;;;5053122;28;1866;-69
2023/05/08 11:34:43;;;;;;;;;;;19.80;70.20;;;;;;5053807;28;1456;-69
2023/05/08 11:37:09;;;;;;;;;;;19.80;70.30;;;;;;5053258;28;875;-69
2023/05/08 11:39:35;;;;;;;;;;;19.80;70.30;;;;;;5052614;28;1311;-68
2023/05/08 11:42:19;;;;;;;;;;;19.80;70.30;;;;;;5052765;28;877;-69
2023/05/08 11:44:44;;;;;;;;;;;19.80;70.30;;;;;;5051490;28;1248;-68
2023/05/08 11:47:10;;;;;;;;;;;19.80;70.30;;;;;;5045127;28;1018;-70
2023/05/08 11:49:36;;;;;;;;;;;19.80;70.50;;;;;;5084913;28;858;-70
2023/05/08 11:52:03;;;;;;;;;;;19.80;70.50;;;;;;5085136;28;1909;-70
2023/05/08 11:54:29;;;;;;;;;;;19.70;70.50;;;;;;5084102;28;1526;-69
2023/05/08 11:56:54;;;;;;;;;;;19.70;70.60;;;;;;5050852;28;877;-69
2023/05/08 11:59:20;;;;;;;;;;;19.70;70.70;;;;;;5052681;28;788;-69
2023/05/08 12:01:48;;;;;;;;;;;19.70;70.80;;;;;;5053001;28;891;-70
2023/05/08 12:04:14;;;;;;;;;;;19.70;70.90;;;;;;5050154;28;1089;-69
2023/05/08 12:06:39;;;;;;;;;;;19.70;67.00;;;;;;5052026;28;1262;-69
2023/05/08 12:09:09;;;;;;;;;;;19.70;59.70;;;;;;5052195;28;905;-70
2023/05/08 12:11:34;;;;;;;;;;;19.60;57.30;;;;;;5050979;28;1960;-69
2023/05/08 12:14:00;;;;;;;;;;;19.60;56.10;;;;;;5050755;28;1390;-69
2023/05/08 12:16:25;;;;;;;;;;;19.50;52.90;;;;;;5051778;28;1578;-70
2023/05/08 12:18:51;;;;;;;;;;;19.50;51.10;;;;;;5052164;28;831;-69
2023/05/08 12:21:16;;;;;;;;;;;19.50;50.10;;;;;;5052558;28;859;-67
2023/05/08 12:23:42;;;;;;;;;;;19.40;51.50;;;;;;5051689;28;887;-68
2023/05/08 12:26:07;;;;;;;;;;;19.40;49.50;;;;;;5083941;28;1248;-69
2023/05/08 12:28:33;;;;;;;;;;;19.40;49.00;;;;;;5050406;28;997;-67
2023/05/08 12:30:59;;;;;;;;;;;19.30;48.70;;;;;;5050742;28;941;-67
2023/05/08 12:33:24;;;;;;;;;;;19.30;48.00;;;;;;5066545;28;1957;-68
2023/05/08 12:35:50;;;;;;;;;;;19.30;48.00;;;;;;5051743;28;1310;-68
2023/05/08 12:38:15;;;;;;;;;;;19.30;48.80;;;;;;5050293;28;1243;-68
2023/05/08 12:40:41;;;;;;;;;;;19.30;47.30;;;;;;5051432;28;994;-68
2023/05/08 12:43:07;;;;;;;;;;;19.30;47.90;;;;;;5050708;28;2046;-68
2023/05/08 12:45:33;;;;;;;;;;;19.30;47.40;;;;;;5082851;28;2142;-68
2023/05/08 12:48:02;;;;;;;;;;;19.30;47.00;;;;;;5051311;28;1275;-68
2023/05/08 12:50:29;;;;;;;;;;;19.20;47.10;;;;;;5051398;28;1468;-68
2023/05/08 12:53:00;;;;;;;;;;;19.30;46.70;;;;;;5082360;28;1964;-68
2023/05/08 12:55:26;;;;;;;;;;;19.30;46.70;;;;;;5048924;28;1365;-68
2023/05/08 12:58:04;;;;;;;;;;;19.20;46.30;;;;;;5050101;28;852;-68
2023/05/08 13:00:36;;;;;;;;;;;19.20;45.60;;;;;;5050270;28;811;-68
2023/05/08 13:03:02;;;;;;;;;;;19.20;45.70;;;;;;5050035;28;1898;-69
2023/05/08 13:05:27;;;;;;;;;;;19.20;44.20;;;;;;5048609;28;1711;-68
2023/05/08 13:08:13;;;;;;;;;;;19.20;45.60;;;;;;5050997;28;1225;-68
2023/05/08 13:10:48;;;;;;;;;;;19.20;44.30;;;;;;5050582;28;1034;-68
2023/05/08 13:13:14;;;;;;;;;;;19.20;44.20;;;;;;5049552;28;1918;-68
2023/05/08 13:15:41;;;;;;;;;;;19.20;43.60;;;;;;5050161;28;1276;-68
2023/05/08 13:18:06;;;;;;;;;;;19.20;44.10;;;;;;5066134;28;1403;-68
2023/05/08 13:20:32;;;;;;;;;;;19.20;43.40;;;;;;5051145;28;859;-68
2023/05/08 13:22:58;;;;;;;;;;;19.20;43.20;;;;;;5050553;28;890;-68
2023/05/08 13:25:23;;;;;;;;;;;19.20;43.30;;;;;;5051431;28;1176;-69
2023/05/08 13:27:49;;;;;;;;;;;19.20;43.20;;;;;;5050831;28;978;-69
2023/05/08 13:30:14;;;;;;;;;;;19.20;42.90;;;;;;5050462;28;1076;-68
2023/05/08 13:32:40;;;;;;;;;;;19.20;41.90;;;;;;5050372;28;1879;-67
2023/05/08 13:35:05;;;;;;;;;;;19.20;42.30;;;;;;5050158;28;1363;-67
2023/05/08 13:37:31;;;;;;;;;;;19.20;42.10;;;;;;5050263;28;867;-68
2023/05/08 13:39:56;;;;;;;;;;;19.20;41.60;;;;;;5049876;28;2002;-68
2023/05/08 13:42:22;;;;;;;;;;;19.20;41.10;;;;;;5050379;28;1318;-67
2023/05/08 13:44:47;;;;;;;;;;;19.20;41.00;;;;;;5049872;28;1363;-68
2023/05/08 13:47:12;;;;;;;;;;;19.30;41.40;;;;;;5050493;28;1137;-68
2023/05/08 13:49:38;;;;;;;;;;;19.20;43.80;;;;;;5049765;28;1431;-67
2023/05/08 13:52:03;;;;;;;;;;;19.20;42.20;;;;;;5049960;28;1898;-68
2023/05/08 13:54:29;;;;;;;;;;;19.20;41.70;;;;;;5050009;28;1265;-69
2023/05/08 13:56:54;;;;;;;;;;;19.20;41.20;;;;;;5050103;28;847;-68
2023/05/08 13:59:20;;;;;;;;;;;19.20;41.20;;;;;;5050323;28;904;-68
2023/05/08 14:01:45;;;;;;;;;;;19.30;41.10;;;;;;5050302;28;959;-68
2023/05/08 14:04:11;;;;;;;;;;;19.30;44.20;;;;;;5049819;28;915;-69
2023/05/08 14:06:36;;;;;;;;;;;19.20;44.20;;;;;;5048677;28;1286;-67
2023/05/08 14:09:02;;;;;;;;;;;19.20;44.10;;;;;;5048552;28;1270;-68
2023/05/08 14:11:28;;;;;;;;;;;19.20;45.20;;;;;;5048102;28;1989;-68
2023/05/08 14:13:54;;;;;;;;;;;19.10;45.30;;;;;;5049275;28;823;-68
2023/05/08 14:16:19;;;;;;;;;;;19.10;45.20;;;;;;5050103;28;1302;-68
2023/05/08 14:18:45;;;;;;;;;;;19.10;46.00;;;;;;5050127;28;883;-69
2023/05/08 14:21:10;;;;;;;;;;;19.10;45.70;;;;;;5050108;28;985;-69
2023/05/08 14:23:37;;;;;;;;;;;19.10;45.00;;;;;;5049805;28;800;-69
2023/05/08 14:26:03;;;;;;;;;;;19.00;45.10;;;;;;5049901;28;1235;-70
2023/05/08 14:28:28;;;;;;;;;;;19.00;46.10;;;;;;5050363;28;926;-68
2023/05/08 14:30:54;;;;;;;;;;;19.00;46.50;;;;;;5050286;28;1596;-68
2023/05/08 14:33:20;;;;;;;;;;;19.00;45.20;;;;;;5048082;28;1898;-67
2023/05/08 14:35:47;;;;;;;;;;;19.00;45.70;;;;;;5049867;28;1250;-68